Time;durP1;ratioP1;P1;durP2;ratioP2;P2;SDS_P1;SDS_P2;PMS_P1;PMS_P2;Temp;Humidity;BMP_temperature;BMP_pressure;BME280_temperature;BME280_humidity;BME280_pressure;Samples;Min_cycle;Max_cycle;Signal;HPM_P1;HPM_P2
2022/08/16 00:01:33;;;;;;;4.95;3.55;;;22.30;64.70;;;;;;5054898;28;20021;-40
2022/08/16 00:03:59;;;;;;;4.78;2.92;;;22.30;65.10;;;;;;5056296;28;20055;-40
2022/08/16 00:06:24;;;;;;;5.50;3.40;;;22.20;65.30;;;;;;5056304;28;20469;-39
2022/08/16 00:08:50;;;;;;;5.82;4.38;;;22.20;65.50;;;;;;5056388;28;20037;-40
2022/08/16 00:11:17;;;;;;;6.30;3.25;;;22.10;65.80;;;;;;5055953;28;20057;-40
2022/08/16 00:13:47;;;;;;;6.72;3.65;;;22.10;66.00;;;;;;5056014;28;20032;-39
2022/08/16 00:16:12;;;;;;;4.55;3.88;;;22.00;66.30;;;;;;5056020;28;20507;-40
2022/08/16 00:18:38;;;;;;;5.35;3.53;;;22.00;66.30;;;;;;5056013;28;20108;-48
2022/08/16 00:21:04;;;;;;;4.38;3.15;;;21.90;66.60;;;;;;5056759;28;20036;-38
2022/08/16 00:23:30;;;;;;;5.13;3.72;;;21.80;67.30;;;;;;5056679;28;20032;-41
2022/08/16 00:25:56;;;;;;;4.50;3.35;;;21.80;67.20;;;;;;5057030;28;20029;-40
2022/08/16 00:28:22;;;;;;;6.35;3.80;;;21.80;67.20;;;;;;5057007;28;20032;-46
2022/08/16 00:30:48;;;;;;;6.13;3.58;;;21.80;67.00;;;;;;5056979;28;20037;-41
2022/08/16 00:33:14;;;;;;;5.03;3.72;;;21.80;67.20;;;;;;5056500;28;20017;-39
2022/08/16 00:35:40;;;;;;;4.88;3.65;;;21.80;67.20;;;;;;5055100;28;20072;-40
2022/08/16 00:38:06;;;;;;;10.15;4.28;;;21.80;67.30;;;;;;5057077;28;20029;-40
2022/08/16 00:40:37;;;;;;;5.70;3.78;;;21.80;67.10;;;;;;5055556;28;20107;-39
2022/08/16 00:43:07;;;;;;;7.03;4.07;;;21.80;67.30;;;;;;5056479;28;20472;-39
2022/08/16 00:45:49;;;;;;;5.38;4.13;;;21.80;67.30;;;;;;5055269;28;20025;-39
2022/08/16 00:48:15;;;;;;;6.38;3.72;;;21.80;67.40;;;;;;5056441;28;20481;-38
2022/08/16 00:50:42;;;;;;;6.53;3.80;;;21.80;67.40;;;;;;5055970;28;20068;-38
2022/08/16 00:53:12;;;;;;;7.10;3.88;;;21.70;67.70;;;;;;5056704;28;20025;-38
2022/08/16 00:55:41;;;;;;;8.75;4.63;;;21.70;68.10;;;;;;5056502;28;20355;-40
2022/08/16 00:58:09;;;;;;;4.22;3.83;;;21.70;67.90;;;;;;5055531;28;20052;-40
2022/08/16 01:00:36;;;;;;;4.47;3.65;;;21.70;67.80;;;;;;5056775;28;20029;-39
2022/08/16 01:03:10;;;;;;;7.45;4.00;;;21.60;68.10;;;;;;5055156;28;20418;-39
2022/08/16 01:05:36;;;;;;;4.95;3.28;;;21.50;68.30;;;;;;5055408;28;20115;-39
2022/08/16 01:08:03;;;;;;;4.68;3.88;;;21.50;68.50;;;;;;5053572;28;20032;-38
2022/08/16 01:10:31;;;;;;;5.07;4.07;;;21.50;68.60;;;;;;5055027;28;20044;-39
2022/08/16 01:12:57;;;;;;;5.53;3.70;;;21.50;68.60;;;;;;5055300;28;20033;-40
2022/08/16 01:15:24;;;;;;;4.22;3.83;;;21.70;68.30;;;;;;5055002;28;20143;-40
2022/08/16 01:17:51;;;;;;;6.00;4.45;;;21.70;68.10;;;;;;5055204;28;20057;-39
2022/08/16 01:20:20;;;;;;;4.75;4.22;;;21.60;68.40;;;;;;5037022;28;20112;-40
2022/08/16 01:23:37;;;;;;;8.95;4.32;;;21.50;68.60;;;;;;5054797;28;20064;-39
2022/08/16 01:26:04;;;;;;;7.38;4.78;;;21.50;68.80;;;;;;5050703;28;20044;-44
2022/08/16 01:28:30;;;;;;;6.03;3.92;;;21.40;69.30;;;;;;5054683;28;20029;-40
2022/08/16 01:30:58;;;;;;;4.57;3.85;;;21.40;69.30;;;;;;5054982;28;20029;-39
2022/08/16 01:33:24;;;;;;;9.57;4.35;;;21.40;69.40;;;;;;5054443;28;20048;-40
2022/08/16 01:36:05;;;;;;;10.05;5.93;;;21.40;69.70;;;;;;5054699;28;20025;-39
2022/08/16 01:38:37;;;;;;;5.85;3.70;;;21.30;69.80;;;;;;5054374;28;20445;-38
2022/08/16 01:41:10;;;;;;;6.13;4.40;;;21.30;70.30;;;;;;5054219;28;20036;-39
2022/08/16 01:43:38;;;;;;;4.60;4.00;;;21.30;70.10;;;;;;5054302;28;20481;-39
2022/08/16 01:46:07;;;;;;;5.88;4.38;;;21.30;70.20;;;;;;5054530;28;20575;-38
2022/08/16 01:48:33;;;;;;;5.50;4.97;;;21.30;70.20;;;;;;5054257;28;20052;-38
2022/08/16 01:51:01;;;;;;;6.05;4.40;;;21.30;70.70;;;;;;5052833;28;20124;-39
2022/08/16 01:53:28;;;;;;;8.75;4.78;;;21.30;70.70;;;;;;5054147;28;20017;-38
2022/08/16 01:55:55;;;;;;;4.45;4.05;;;21.30;70.80;;;;;;5054063;28;20533;-39
2022/08/16 01:58:22;;;;;;;5.00;3.90;;;21.20;70.90;;;;;;5054273;28;20024;-39
2022/08/16 02:00:48;;;;;;;6.10;4.70;;;21.30;70.70;;;;;;5054163;28;20405;-38
2022/08/16 02:03:15;;;;;;;6.28;4.70;;;21.20;71.10;;;;;;5053836;28;20067;-39
2022/08/16 02:05:41;;;;;;;6.57;4.95;;;21.20;71.20;;;;;;5053839;28;20025;-40
2022/08/16 02:08:07;;;;;;;6.13;4.32;;;21.20;71.20;;;;;;5052434;28;20322;-38
2022/08/16 02:10:34;;;;;;;5.32;3.65;;;21.30;70.90;;;;;;5053389;28;20049;-39
2022/08/16 02:13:00;;;;;;;6.90;5.03;;;21.30;71.10;;;;;;5053739;28;20142;-39
2022/08/16 02:15:28;;;;;;;5.78;4.13;;;21.20;71.30;;;;;;5053654;28;20025;-38
2022/08/16 02:17:56;;;;;;;7.55;4.30;;;21.20;71.50;;;;;;5053528;28;20025;-39
2022/08/16 02:20:22;;;;;;;6.88;3.92;;;21.30;71.30;;;;;;5051752;28;20112;-37
2022/08/16 02:22:48;;;;;;;5.82;4.60;;;21.30;71.10;;;;;;5053531;28;20470;-38
2022/08/16 02:25:15;;;;;;;5.85;4.70;;;21.30;71.20;;;;;;5053456;28;20021;-37
2022/08/16 02:27:43;;;;;;;7.57;4.13;;;21.30;71.00;;;;;;5053375;28;20449;-38
2022/08/16 02:30:13;;;;;;;5.75;4.20;;;21.20;71.40;;;;;;5053520;28;20039;-39
2022/08/16 02:32:41;;;;;;;5.97;4.53;;;21.20;71.90;;;;;;5053077;28;20036;-40
2022/08/16 02:35:06;;;;;;;7.15;4.45;;;21.00;72.10;;;;;;5052956;28;20029;-39
2022/08/16 02:37:32;;;;;;;5.93;4.45;;;21.00;72.10;;;;;;5052879;28;20020;-39
2022/08/16 02:39:58;;;;;;;8.27;4.43;;;21.20;71.80;;;;;;5053181;28;20056;-41
2022/08/16 02:42:24;;;;;;;8.88;4.68;;;21.10;72.00;;;;;;5052942;28;20029;-39
2022/08/16 02:44:49;;;;;;;4.82;4.32;;;21.00;72.10;;;;;;5051676;28;20056;-39
2022/08/16 02:47:15;;;;;;;6.72;4.50;;;20.90;72.40;;;;;;5053152;28;20057;-39
2022/08/16 02:49:42;;;;;;;6.57;4.35;;;20.90;72.70;;;;;;5052973;28;20037;-39
2022/08/16 02:52:09;;;;;;;11.65;4.70;;;21.00;72.40;;;;;;5052783;28;20361;-38
2022/08/16 02:54:35;;;;;;;7.63;4.97;;;21.00;72.40;;;;;;5052621;28;20110;-38
2022/08/16 02:57:01;;;;;;;5.95;4.50;;;21.00;72.30;;;;;;5052973;28;20112;-38
2022/08/16 02:59:26;;;;;;;6.90;4.45;;;20.80;72.70;;;;;;5052849;28;20099;-38
2022/08/16 03:01:52;;;;;;;14.23;4.70;;;20.80;73.00;;;;;;5053309;28;20425;-38
2022/08/16 03:04:18;;;;;;;6.03;4.15;;;20.80;73.50;;;;;;5052747;28;20087;-39
2022/08/16 03:06:44;;;;;;;8.65;4.82;;;20.80;73.10;;;;;;5052886;28;20144;-38
2022/08/16 03:09:10;;;;;;;6.05;5.32;;;20.80;73.30;;;;;;5052820;28;20440;-40
2022/08/16 03:11:35;;;;;;;9.73;4.68;;;20.70;73.50;;;;;;5052787;28;20045;-39
2022/08/16 03:14:01;;;;;;;8.05;4.90;;;20.70;73.60;;;;;;5051367;28;20075;-39
2022/08/16 03:16:27;;;;;;;6.65;4.95;;;20.60;73.70;;;;;;5052828;28;20143;-40
2022/08/16 03:18:53;;;;;;;7.55;4.40;;;20.60;73.80;;;;;;5052619;28;20028;-39
2022/08/16 03:21:20;;;;;;;8.35;4.75;;;20.50;74.10;;;;;;5052770;28;20029;-39
2022/08/16 03:23:45;;;;;;;10.27;5.75;;;20.40;74.50;;;;;;5052811;28;20388;-39
2022/08/16 03:26:12;;;;;;;7.65;6.25;;;20.40;74.60;;;;;;5052419;28;20068;-39
2022/08/16 03:28:38;;;;;;;5.90;4.95;;;20.50;74.60;;;;;;5052362;28;20107;-40
2022/08/16 03:31:05;;;;;;;9.05;4.88;;;20.50;74.50;;;;;;5052312;28;20385;-39
2022/08/16 03:33:32;;;;;;;11.25;6.25;;;20.50;74.50;;;;;;5055310;28;20391;-39
2022/08/16 03:35:58;;;;;;;8.07;5.18;;;20.40;74.60;;;;;;5056553;28;20025;-40
2022/08/16 03:38:26;;;;;;;8.40;4.95;;;20.30;75.00;;;;;;5057268;28;20412;-39
2022/08/16 03:40:52;;;;;;;6.00;5.13;;;20.30;75.00;;;;;;5056665;28;20028;-39
2022/08/16 03:43:18;;;;;;;14.63;5.38;;;20.30;75.20;;;;;;5056819;28;20473;-38
2022/08/16 03:45:43;;;;;;;9.75;5.90;;;20.30;75.30;;;;;;5056759;28;20082;-38
2022/08/16 03:48:09;;;;;;;6.45;5.55;;;20.30;75.40;;;;;;5056348;28;20071;-38
2022/08/16 03:50:36;;;;;;;5.55;5.05;;;20.30;75.30;;;;;;5038655;28;20366;-38
2022/08/16 03:53:03;;;;;;;6.30;5.20;;;20.30;75.30;;;;;;5056367;28;20027;-38
2022/08/16 03:55:28;;;;;;;7.50;5.88;;;20.20;75.60;;;;;;5056305;28;20029;-38
2022/08/16 03:57:54;;;;;;;5.70;5.20;;;20.20;75.70;;;;;;5055352;28;20102;-39
2022/08/16 04:00:25;;;;;;;7.47;5.32;;;20.20;75.60;;;;;;5056988;28;20027;-39
2022/08/16 19:12:13;;;;;;;7.25;4.05;;;25.80;45.30;;;;;;5070849;28;20908;-39
2022/08/16 19:14:38;;;;;;;6.70;3.97;;;25.90;45.30;;;;;;5071494;28;20039;-38
2022/08/16 19:17:04;;;;;;;7.18;3.63;;;26.00;45.20;;;;;;5071352;28;20048;-39
2022/08/16 19:19:30;;;;;;;5.18;3.38;;;26.10;45.10;;;;;;5070330;28;20020;-39
2022/08/16 19:21:56;;;;;;;5.97;3.97;;;26.00;45.20;;;;;;5070067;28;20099;-40
2022/08/16 19:24:21;;;;;;;11.00;4.05;;;25.90;45.50;;;;;;5070780;28;20094;-39
2022/08/16 19:26:48;;;;;;;6.60;4.00;;;25.90;45.60;;;;;;5070047;28;20075;-39
2022/08/16 19:29:14;;;;;;;5.90;3.80;;;25.80;45.90;;;;;;5070652;28;20218;-39
2022/08/16 19:31:39;;;;;;;5.68;3.95;;;25.70;46.00;;;;;;5070190;28;20025;-38
2022/08/16 19:34:06;;;;;;;5.72;3.78;;;25.70;46.30;;;;;;5070654;28;20041;-41
2022/08/16 19:36:35;;;;;;;5.88;3.78;;;25.70;46.60;;;;;;5070357;28;20067;-40
2022/08/16 19:39:05;;;;;;;5.10;4.15;;;25.60;46.80;;;;;;5070026;28;20051;-38
2022/08/16 19:41:31;;;;;;;;;;;25.50;47.20;;;;;;5071173;28;20152;-40
2022/08/16 19:43:56;;;;;;;5.82;3.97;;;25.40;47.50;;;;;;5069603;28;20007;-39
2022/08/16 19:46:22;;;;;;;10.80;5.05;;;25.30;47.80;;;;;;5069618;28;20116;-38
2022/08/16 19:48:48;;;;;;;11.88;3.95;;;25.30;48.10;;;;;;5068478;28;20425;-38
2022/08/16 19:51:15;;;;;;;5.60;4.07;;;25.20;48.40;;;;;;5069158;28;20045;-38
2022/08/16 19:53:41;;;;;;;6.60;4.85;;;25.20;48.50;;;;;;5069407;28;20387;-39
2022/08/16 19:56:06;;;;;;;7.60;4.97;;;25.20;48.70;;;;;;5069273;28;20108;-40
2022/08/16 19:58:32;;;;;;;7.45;4.20;;;25.10;49.00;;;;;;5069269;28;20024;-39
2022/08/16 20:00:58;;;;;;;8.98;4.15;;;25.10;49.60;;;;;;5069092;28;20021;-39
2022/08/16 20:03:24;;;;;;;12.10;5.03;;;25.00;50.10;;;;;;5069564;28;20021;-38
2022/08/16 20:05:50;;;;;;;7.63;5.10;;;24.90;50.40;;;;;;5069252;28;20044;-39
2022/08/16 20:08:17;;;;;;;11.05;4.25;;;24.80;50.60;;;;;;5069125;28;20121;-39
2022/08/16 20:10:45;;;;;;;6.93;4.88;;;24.80;51.10;;;;;;5068784;28;20056;-38
2022/08/16 20:13:17;;;;;;;8.10;5.72;;;24.70;51.90;;;;;;5068771;28;20100;-39
2022/08/16 20:15:45;;;;;;;6.50;5.05;;;24.60;52.20;;;;;;5069013;28;20480;-38
2022/08/16 20:18:11;;;;;;;8.10;4.72;;;24.50;52.50;;;;;;5068883;28;20025;-39
2022/08/16 20:20:37;;;;;;;11.82;4.90;;;24.40;52.70;;;;;;5067649;28;20037;-39
2022/08/16 20:23:09;;;;;;;10.40;5.10;;;24.40;52.80;;;;;;5058534;28;20496;-39
2022/08/16 20:25:34;;;;;;;17.10;5.88;;;24.40;52.80;;;;;;5055864;28;20495;-39
2022/08/16 20:28:00;;;;;;;8.35;5.63;;;24.30;53.20;;;;;;5056080;28;20052;-38
2022/08/16 20:30:27;;;;;;;8.30;5.43;;;24.30;53.10;;;;;;5055601;28;20032;-39
2022/08/16 20:32:53;;;;;;;10.15;4.68;;;24.30;53.40;;;;;;5054247;28;20021;-39
2022/08/16 20:35:21;;;;;;;7.40;5.05;;;24.30;53.20;;;;;;5055364;28;20029;-38
2022/08/16 20:37:47;;;;;;;6.70;4.60;;;24.30;53.40;;;;;;5055287;28;20023;-38
2022/08/16 20:40:19;;;;;;;13.10;6.97;;;24.30;53.50;;;;;;5053940;28;20120;-40
2022/08/16 20:43:15;;;;;;;11.70;5.85;;;24.30;54.50;;;;;;5055811;28;20025;-39
2022/08/16 20:45:43;;;;;;;18.35;5.25;;;24.10;55.00;;;;;;5055694;28;20025;-39
2022/08/16 20:48:09;;;;;;;13.57;6.65;;;24.10;55.70;;;;;;5053793;28;20485;-39
2022/08/16 20:50:36;;;;;;;7.03;5.18;;;24.10;56.30;;;;;;5056029;28;20025;-40
2022/08/16 20:53:03;;;;;;;11.52;5.90;;;24.00;56.60;;;;;;5054800;28;20033;-39
2022/08/16 20:55:38;;;;;;;9.98;4.72;;;24.00;56.50;;;;;;5053876;28;20025;-39
2022/08/16 20:58:04;;;;;;;9.52;5.47;;;23.90;56.60;;;;;;5055293;28;20035;-40
2022/08/16 21:00:32;;;;;;;10.13;5.28;;;23.90;57.30;;;;;;5054950;28;20025;-38
2022/08/16 21:02:58;;;;;;;9.65;5.18;;;23.80;57.10;;;;;;5055346;28;20353;-39
2022/08/16 21:05:26;;;;;;;9.52;4.72;;;23.80;57.00;;;;;;5055341;28;20450;-37
2022/08/16 21:07:53;;;;;;;5.82;4.97;;;23.80;57.10;;;;;;5055434;28;20074;-38
2022/08/16 21:10:21;;;;;;;9.25;5.80;;;23.80;57.20;;;;;;5055286;28;20129;-38
2022/08/16 21:12:50;;;;;;;9.20;5.18;;;23.80;57.20;;;;;;5055166;28;20048;-38
2022/08/16 21:15:16;;;;;;;5.75;4.57;;;23.80;57.10;;;;;;5055183;28;20488;-38
2022/08/16 21:17:42;;;;;;;6.28;5.05;;;23.80;57.10;;;;;;5053459;28;20024;-40
2022/08/16 21:20:08;;;;;;;7.70;4.97;;;23.90;57.20;;;;;;5054654;28;20034;-44
2022/08/16 21:22:35;;;;;;;11.20;4.85;;;23.90;57.00;;;;;;5054711;28;20029;-39
2022/08/16 21:25:00;;;;;;;6.00;4.88;;;23.90;56.40;;;;;;5054620;28;20078;-38
2022/08/16 21:27:26;;;;;;;10.85;5.78;;;24.00;56.20;;;;;;5054411;28;20029;-39
2022/08/16 21:29:52;;;;;;;11.65;5.63;;;24.00;56.00;;;;;;5054574;28;20453;-38
2022/08/16 21:32:22;;;;;;;8.70;5.90;;;24.00;56.30;;;;;;5054753;28;20028;-38
2022/08/16 21:34:48;;;;;;;7.07;5.35;;;23.90;56.70;;;;;;5053647;28;20473;-38
2022/08/16 21:37:14;;;;;;;8.15;5.53;;;23.80;57.00;;;;;;5054515;28;20046;-38
2022/08/16 21:39:39;;;;;;;7.05;5.90;;;23.80;57.30;;;;;;5054509;28;20021;-39
2022/08/16 21:42:10;;;;;;;7.78;5.63;;;23.70;57.50;;;;;;5054177;28;20380;-39
2022/08/16 21:44:36;;;;;;;11.07;5.30;;;23.80;57.20;;;;;;5054157;28;20048;-39
2022/08/16 21:47:02;;;;;;;5.80;4.82;;;23.80;57.00;;;;;;5054256;28;20389;-38
2022/08/16 21:49:28;;;;;;;7.38;4.93;;;23.70;57.20;;;;;;5054665;28;20021;-39
2022/08/16 21:51:53;;;;;;;13.20;5.68;;;23.70;57.10;;;;;;5054150;28;20413;-38
2022/08/16 21:54:19;;;;;;;9.05;4.75;;;23.60;57.10;;;;;;5054316;28;20056;-37
2022/08/16 21:56:44;;;;;;;8.13;5.53;;;23.50;57.10;;;;;;5054398;28;20067;-38
2022/08/16 21:59:10;;;;;;;7.07;4.63;;;23.50;56.80;;;;;;5054018;28;20036;-39
2022/08/16 22:01:40;;;;;;;7.50;5.30;;;23.60;56.80;;;;;;5054126;28;20051;-38
2022/08/16 22:04:08;;;;;;;8.23;5.15;;;23.60;56.50;;;;;;5054239;28;20025;-39
2022/08/16 22:06:36;;;;;;;11.20;5.28;;;23.70;56.30;;;;;;5054296;28;20033;-38
2022/08/16 22:09:03;;;;;;;11.82;5.00;;;23.70;56.00;;;;;;5052726;28;20593;-39
2022/08/16 22:11:29;;;;;;;8.48;4.40;;;23.70;55.90;;;;;;5053697;28;20037;-39
2022/08/16 22:13:56;;;;;;;11.02;5.13;;;23.70;55.90;;;;;;5053872;28;20047;-39
2022/08/16 22:16:25;;;;;;;7.53;5.10;;;23.70;55.40;;;;;;5053872;28;20102;-38
2022/08/16 22:18:51;;;;;;;6.07;5.05;;;23.70;55.50;;;;;;5052385;28;20064;-39
2022/08/16 22:21:17;;;;;;;7.07;4.80;;;23.80;55.50;;;;;;5052257;28;20068;-38
2022/08/16 22:23:42;;;;;;;7.93;5.07;;;23.80;55.20;;;;;;5053492;28;20033;-39
2022/08/16 22:26:08;;;;;;;8.07;5.22;;;23.70;55.10;;;;;;5053433;28;20462;-38
2022/08/16 22:28:34;;;;;;;6.47;4.85;;;23.80;55.30;;;;;;5053210;28;20095;-38
2022/08/16 22:31:00;;;;;;;9.20;5.93;;;23.80;55.20;;;;;;5051970;28;20025;-39
2022/08/16 22:33:27;;;;;;;7.80;5.47;;;23.80;55.10;;;;;;5053532;28;20025;-38
2022/08/16 22:35:59;;;;;;;7.80;4.47;;;23.80;55.20;;;;;;5053637;28;20028;-38
2022/08/16 22:38:26;;;;;;;8.48;5.00;;;23.80;55.40;;;;;;5053700;28;20024;-38
2022/08/16 22:40:52;;;;;;;6.22;5.20;;;23.80;55.60;;;;;;5053587;28;20441;-39
2022/08/16 22:43:19;;;;;;;9.38;5.38;;;23.70;55.70;;;;;;5053732;28;20103;-38
2022/08/16 22:45:45;;;;;;;7.18;5.43;;;23.70;55.90;;;;;;5053244;28;20059;-38
2022/08/16 22:48:11;;;;;;;5.35;4.82;;;23.70;56.20;;;;;;5051810;28;20056;-38
2022/08/16 22:50:37;;;;;;;7.55;5.35;;;23.70;56.60;;;;;;5053118;28;20025;-43
2022/08/16 22:53:04;;;;;;;7.03;5.82;;;23.70;56.70;;;;;;5053233;28;20066;-39
2022/08/16 22:55:31;;;;;;;9.95;6.03;;;23.70;56.90;;;;;;5053565;28;20375;-39
2022/08/16 22:57:57;;;;;;;10.20;5.82;;;23.80;56.80;;;;;;5053418;28;20025;-39
2022/08/16 23:00:25;;;;;;;6.85;5.53;;;23.80;57.00;;;;;;5053957;28;20423;-38
2022/08/16 23:03:01;;;;;;;6.65;5.90;;;23.80;57.10;;;;;;5052921;28;20033;-38
2022/08/16 23:05:40;;;;;;;7.65;6.30;;;23.80;57.40;;;;;;5052944;28;20025;-38
2022/08/16 23:08:09;;;;;;;6.30;5.70;;;23.70;57.70;;;;;;5053286;28;20103;-38
2022/08/16 23:10:35;;;;;;;6.80;6.05;;;23.70;58.00;;;;;;5053333;28;20049;-40
2022/08/16 23:13:04;;;;;;;9.77;6.68;;;23.60;58.10;;;;;;5053863;28;20021;-39
2022/08/16 23:15:31;;;;;;;7.38;6.68;;;23.60;58.30;;;;;;5053724;28;20059;-39
2022/08/16 23:17:57;;;;;;;8.02;5.95;;;23.60;58.40;;;;;;5053999;28;20033;-39
2022/08/16 23:20:26;;;;;;;9.18;6.05;;;23.60;58.50;;;;;;5053543;28;20477;-38
2022/08/16 23:22:55;;;;;;;7.80;6.50;;;23.70;58.30;;;;;;5053142;28;20032;-48
2022/08/16 23:25:25;;;;;;;9.05;6.75;;;23.60;58.40;;;;;;5053734;28;20059;-39
2022/08/16 23:27:51;;;;;;;;;;;23.70;58.40;;;;;;5054003;28;20029;-39
2022/08/16 23:30:19;;;;;;;9.65;6.13;;;23.60;58.60;;;;;;5053825;28;20007;-40
2022/08/16 23:32:48;;;;;;;10.10;6.50;;;23.50;58.90;;;;;;5053911;28;20033;-39
2022/08/16 23:35:17;;;;;;;7.05;6.35;;;23.50;58.90;;;;;;5052457;28;20021;-39
2022/08/16 23:37:43;;;;;;;12.40;7.13;;;23.50;59.10;;;;;;5052058;28;20075;-38
2022/08/16 23:40:12;;;;;;;11.30;6.15;;;23.40;59.30;;;;;;5053325;28;20460;-38
2022/08/16 23:42:52;;;;;;;13.27;7.22;;;23.30;59.60;;;;;;5053492;28;20468;-39
2022/08/16 23:45:19;;;;;;;20.60;6.88;;;23.40;59.70;;;;;;5052547;28;20044;-39
2022/08/16 23:47:45;;;;;;;7.13;5.95;;;23.30;60.00;;;;;;5052386;28;20047;-39
2022/08/16 23:50:11;;;;;;;8.75;6.80;;;23.20;60.20;;;;;;5053934;28;20017;-39
2022/08/16 23:52:36;;;;;;;11.02;6.97;;;23.30;60.40;;;;;;5053857;28;20476;-39
2022/08/16 23:55:04;;;;;;;16.35;8.00;;;23.30;60.40;;;;;;5053749;28;20027;-39
2022/08/16 23:57:30;;;;;;;10.55;7.20;;;23.30;60.40;;;;;;5055373;28;20362;-39
2022/08/16 23:59:55;;;;;;;9.80;6.63;;;23.30;60.40;;;;;;5057529;28;20032;-41
